Time;durP1;ratioP1;P1;durP2;ratioP2;P2;SDS_P1;SDS_P2;PMS_P1;PMS_P2;Temp;Humidity;BMP_temperature;BMP_pressure;BME280_temperature;BME280_humidity;BME280_pressure;Samples;Min_cycle;Max_cycle;Signal;HPM_P1;HPM_P2
2023/09/13 00:00:28;;;;;;;4.90;3.42;;;20.60;76.70;;;;;;5077677;28;20036;-70
2023/09/13 00:02:54;;;;;;;4.25;3.20;;;20.60;76.90;;;;;;5094721;28;20091;-71
2023/09/13 00:05:19;;;;;;;7.43;3.90;;;20.50;76.80;;;;;;5094319;28;20054;-71
2023/09/13 00:07:45;;;;;;;6.82;4.05;;;20.60;77.00;;;;;;5094718;28;20051;-71
2023/09/13 00:10:11;;;;;;;5.63;3.35;;;20.60;77.10;;;;;;5094969;28;20047;-71
2023/09/13 00:12:36;;;;;;;4.68;2.95;;;20.50;77.10;;;;;;5094431;28;20044;-71
2023/09/13 00:15:02;;;;;;;4.63;3.25;;;20.50;77.20;;;;;;5094847;28;20047;-71
2023/09/13 00:17:28;;;;;;;7.07;3.20;;;20.50;77.20;;;;;;5094686;28;20047;-71
2023/09/13 00:19:57;;;;;;;6.20;3.47;;;20.50;77.20;;;;;;5094195;28;20047;-71
2023/09/13 00:22:23;;;;;;;5.47;3.60;;;20.50;77.30;;;;;;5094409;28;20044;-71
2023/09/13 00:24:49;;;;;;;5.65;4.20;;;20.50;77.30;;;;;;5094358;28;20101;-71
2023/09/13 00:27:14;;;;;;;6.32;3.63;;;20.50;77.50;;;;;;5094381;28;20048;-71
2023/09/13 00:29:40;;;;;;;6.22;3.70;;;20.50;77.70;;;;;;5094237;28;20044;-71
2023/09/13 00:32:06;;;;;;;7.60;4.38;;;20.50;77.70;;;;;;5094449;28;20055;-71
2023/09/13 00:34:31;;;;;;;6.35;3.60;;;20.50;77.80;;;;;;5077348;28;20032;-71
2023/09/13 00:36:57;;;;;;;8.10;4.90;;;20.50;77.90;;;;;;5094121;28;20046;-71
2023/09/13 00:39:23;;;;;;;6.75;3.90;;;20.40;77.90;;;;;;5077085;28;20093;-71
2023/09/13 00:41:49;;;;;;;7.45;4.90;;;20.40;78.00;;;;;;5094289;28;20064;-71
2023/09/13 00:44:15;;;;;;;9.13;5.57;;;20.40;78.10;;;;;;5094117;28;20044;-71
2023/09/13 00:46:42;;;;;;;7.05;4.82;;;20.30;78.20;;;;;;5093843;28;20432;-71
2023/09/13 00:49:09;;;;;;;7.20;4.78;;;20.30;78.40;;;;;;5094299;28;20127;-71
2023/09/13 00:51:35;;;;;;;7.63;4.75;;;20.20;78.40;;;;;;5077087;28;20054;-71
2023/09/13 00:54:02;;;;;;;10.40;6.03;;;20.20;78.50;;;;;;5077291;28;20040;-71
2023/09/13 00:56:29;;;;;;;6.57;4.38;;;20.20;78.60;;;;;;5059953;28;20028;-71
2023/09/13 00:58:55;;;;;;;6.13;4.20;;;20.20;78.70;;;;;;5094294;28;20471;-71
2023/09/13 01:01:21;;;;;;;12.35;6.00;;;20.20;78.80;;;;;;5076873;28;20546;-71
2023/09/13 01:03:47;;;;;;;11.75;5.93;;;20.20;78.90;;;;;;5076275;28;20132;-71
2023/09/13 01:06:14;;;;;;;6.72;4.40;;;20.10;78.90;;;;;;5092717;28;20078;-71
2023/09/13 01:08:41;;;;;;;7.22;4.63;;;20.10;78.90;;;;;;5076717;28;20044;-71
2023/09/13 01:11:08;;;;;;;8.73;5.10;;;20.10;79.00;;;;;;5093438;28;20097;-71
2023/09/13 01:13:34;;;;;;;6.30;4.43;;;20.10;79.00;;;;;;5093853;28;20424;-71
2023/09/13 01:16:21;;;;;;;9.07;4.72;;;20.10;79.10;;;;;;5093817;28;20062;-71
2023/09/13 01:19:34;;;;;;;7.18;4.28;;;20.10;79.10;;;;;;5076611;28;20036;-71
2023/09/13 01:22:34;;;;;;;5.47;3.60;;;20.10;79.00;;;;;;5092840;28;20118;-71
2023/09/13 01:25:19;;;;;;;11.82;4.15;;;20.00;79.00;;;;;;5076464;28;20044;-71
2023/09/13 01:27:56;;;;;;;6.30;3.80;;;20.00;79.10;;;;;;5090838;28;20074;-71
2023/09/13 01:30:25;;;;;;;6.95;3.45;;;20.00;79.30;;;;;;5093255;28;20039;-71
2023/09/13 01:32:51;;;;;;;6.75;3.10;;;20.00;79.30;;;;;;5093254;28;20055;-71
2023/09/13 01:35:17;;;;;;;6.07;3.85;;;20.00;79.40;;;;;;5093066;28;20067;-71
2023/09/13 01:37:43;;;;;;;7.53;4.10;;;20.00;79.40;;;;;;5093051;28;20512;-71
2023/09/13 01:40:09;;;;;;;6.72;3.35;;;20.00;79.40;;;;;;5093026;28;20032;-71
2023/09/13 01:42:40;;;;;;;6.72;2.90;;;19.90;79.30;;;;;;5092969;28;20139;-71
2023/09/13 01:45:09;;;;;;;8.88;4.03;;;19.90;79.30;;;;;;5074809;28;20044;-71
2023/09/13 01:47:35;;;;;;;7.43;3.42;;;19.90;79.30;;;;;;5092837;28;20047;-71
2023/09/13 01:50:01;;;;;;;7.72;3.25;;;19.90;79.30;;;;;;5093147;28;20062;-71
2023/09/13 01:52:28;;;;;;;7.25;3.10;;;19.90;79.50;;;;;;5075628;28;20117;-71
2023/09/13 01:54:54;;;;;;;8.32;3.33;;;19.80;79.50;;;;;;5092465;28;20036;-71
2023/09/13 01:57:20;;;;;;;9.23;4.55;;;19.80;79.50;;;;;;5092905;28;20093;-71
2023/09/13 01:59:45;;;;;;;6.75;3.65;;;19.80;79.50;;;;;;5092258;28;20082;-71
2023/09/13 02:02:11;;;;;;;7.35;3.35;;;19.70;79.50;;;;;;5092905;28;20055;-71
2023/09/13 02:04:37;;;;;;;6.65;3.03;;;19.80;79.70;;;;;;5091978;28;21668;-71
2023/09/13 02:07:03;;;;;;;5.97;2.60;;;19.70;79.60;;;;;;5092563;28;20099;-71
2023/09/13 02:09:29;;;;;;;7.38;3.20;;;19.70;79.60;;;;;;5092717;28;20040;-71
2023/09/13 02:11:54;;;;;;;6.28;3.17;;;19.70;79.70;;;;;;5092372;28;20491;-71
2023/09/13 02:14:20;;;;;;;8.15;3.80;;;19.60;79.60;;;;;;5092602;28;20036;-71
2023/09/13 02:16:46;;;;;;;5.22;3.38;;;19.60;79.60;;;;;;5092141;28;20083;-71
2023/09/13 02:19:11;;;;;;;5.68;3.22;;;19.60;79.60;;;;;;5092390;28;20075;-71
2023/09/13 02:21:37;;;;;;;8.80;3.53;;;19.60;79.70;;;;;;5091796;28;20052;-71
2023/09/13 02:24:03;;;;;;;9.15;4.05;;;19.60;79.70;;;;;;5092228;28;20044;-71
2023/09/13 02:26:30;;;;;;;7.93;3.95;;;19.60;79.80;;;;;;5059188;28;20048;-71
2023/09/13 02:28:56;;;;;;;10.20;4.00;;;19.60;79.80;;;;;;5075793;28;20131;-71
2023/09/13 02:31:26;;;;;;;9.48;3.47;;;19.60;79.80;;;;;;5091940;28;20457;-71
2023/09/13 02:33:53;;;;;;;6.85;3.53;;;19.50;79.70;;;;;;5091861;28;20101;-71
2023/09/13 02:36:19;;;;;;;8.55;3.67;;;19.60;79.80;;;;;;5091879;28;20043;-71
2023/09/13 02:38:45;;;;;;;7.55;3.00;;;19.50;79.70;;;;;;5075184;28;20046;-71
2023/09/13 02:41:11;;;;;;;6.65;3.05;;;19.50;79.50;;;;;;5091740;28;20052;-71
2023/09/13 02:43:40;;;;;;;4.97;2.80;;;19.50;79.50;;;;;;5092135;28;20465;-71
2023/09/13 02:46:05;;;;;;;7.00;2.83;;;19.40;79.50;;;;;;5092353;28;20048;-71
2023/09/13 02:48:31;;;;;;;8.50;3.13;;;19.40;79.50;;;;;;5091995;28;20445;-71
2023/09/13 02:50:57;;;;;;;7.28;3.15;;;19.40;79.40;;;;;;5091558;28;20108;-71
2023/09/13 02:53:22;;;;;;;7.82;2.80;;;19.30;79.10;;;;;;5058364;28;20132;-71
2023/09/13 02:55:48;;;;;;;7.53;2.65;;;19.30;78.90;;;;;;5091869;28;20409;-71
2023/09/13 02:58:14;;;;;;;6.88;2.50;;;19.20;78.80;;;;;;5074673;28;20172;-71
2023/09/13 03:00:43;;;;;;;6.55;2.65;;;19.10;78.80;;;;;;5075059;28;20040;-71
2023/09/13 03:03:09;;;;;;;9.77;3.10;;;19.00;79.00;;;;;;5074988;28;20122;-71
2023/09/13 03:05:36;;;;;;;8.85;2.95;;;19.00;79.10;;;;;;5091086;28;20052;-71
2023/09/13 03:08:03;;;;;;;8.73;2.50;;;18.90;79.30;;;;;;5091695;28;20486;-71
2023/09/13 03:10:29;;;;;;;9.52;3.00;;;18.80;79.30;;;;;;5091323;28;20044;-71
2023/09/13 03:12:55;;;;;;;9.25;2.88;;;18.80;79.30;;;;;;5091220;28;20090;-71
2023/09/13 03:15:21;;;;;;;6.35;2.20;;;18.80;79.50;;;;;;5091536;28;20068;-71
2023/09/13 03:17:46;;;;;;;9.00;2.80;;;18.70;79.50;;;;;;5091660;28;20121;-71
2023/09/13 03:20:12;;;;;;;7.07;2.60;;;18.70;79.50;;;;;;5091413;28;20040;-71
2023/09/13 03:22:38;;;;;;;7.18;2.42;;;18.60;79.90;;;;;;5091079;28;20044;-71
2023/09/13 03:25:06;;;;;;;10.88;3.28;;;18.60;79.90;;;;;;5091384;28;20123;-71
2023/09/13 03:27:32;;;;;;;8.88;3.17;;;18.60;79.50;;;;;;5091894;28;20080;-71
2023/09/13 03:29:58;;;;;;;6.18;2.42;;;18.50;79.60;;;;;;5095307;28;20083;-71
2023/09/13 03:32:24;;;;;;;8.18;2.35;;;18.40;79.80;;;;;;5095583;28;20075;-71
2023/09/13 03:34:51;;;;;;;10.85;3.13;;;18.40;80.00;;;;;;5078398;28;20055;-71
2023/09/13 03:37:18;;;;;;;8.32;2.58;;;18.30;80.10;;;;;;5078444;28;20040;-71
2023/09/13 03:39:43;;;;;;;8.63;2.42;;;18.20;80.40;;;;;;5095522;28;20080;-71
2023/09/13 03:42:09;;;;;;;6.20;2.47;;;18.20;80.60;;;;;;5095121;28;20519;-71
2023/09/13 03:44:35;;;;;;;7.53;2.97;;;18.10;80.70;;;;;;5095276;28;20491;-71
2023/09/13 03:47:00;;;;;;;8.75;2.63;;;18.10;80.90;;;;;;5078590;28;20071;-71
2023/09/13 03:49:26;;;;;;;12.70;3.35;;;18.00;81.00;;;;;;5078681;28;20040;-71
2023/09/13 03:51:52;;;;;;;8.07;2.90;;;18.00;81.10;;;;;;5095044;28;20044;-71
2023/09/13 03:54:17;;;;;;;8.15;2.97;;;17.90;81.30;;;;;;5094834;28;20406;-71
2023/09/13 03:56:43;;;;;;;10.38;3.00;;;17.90;81.50;;;;;;5095230;28;20402;-71
2023/09/13 03:59:09;;;;;;;7.28;2.97;;;17.80;81.70;;;;;;5078102;28;20467;-71
2023/09/13 04:01:35;;;;;;;7.47;3.03;;;17.80;81.90;;;;;;5094817;28;20048;-71
2023/09/13 04:04:00;;;;;;;8.48;2.50;;;17.70;82.00;;;;;;5077786;28;20136;-71
2023/09/13 04:06:26;;;;;;;8.85;3.60;;;17.80;82.40;;;;;;5078153;28;20403;-70
2023/09/13 04:08:52;;;;;;;9.40;2.60;;;17.70;82.50;;;;;;5078106;28;20402;-71
2023/09/13 04:11:17;;;;;;;5.75;2.72;;;17.80;82.60;;;;;;5094338;28;20063;-71
2023/09/13 04:13:43;;;;;;;8.55;2.97;;;17.80;82.50;;;;;;5077763;28;20032;-71
2023/09/13 04:16:13;;;;;;;8.05;2.53;;;17.80;82.50;;;;;;5095108;28;20036;-71
2023/09/13 04:18:39;;;;;;;7.07;2.50;;;17.80;82.60;;;;;;5094614;28;20036;-71
2023/09/13 04:21:05;;;;;;;4.15;2.10;;;17.90;82.70;;;;;;5094472;28;20479;-71
2023/09/13 04:23:30;;;;;;;7.60;2.85;;;17.90;82.70;;;;;;5094347;28;20115;-71
2023/09/13 04:25:56;;;;;;;8.95;2.47;;;18.00;82.80;;;;;;5094214;28;20097;-71
2023/09/13 04:28:22;;;;;;;4.35;2.25;;;18.00;82.70;;;;;;5078026;28;20036;-71
2023/09/13 04:30:48;;;;;;;5.43;2.33;;;18.10;82.60;;;;;;5094614;28;20044;-71
2023/09/13 04:33:14;;;;;;;5.57;2.13;;;18.20;82.50;;;;;;5077166;28;20094;-70
2023/09/13 04:35:39;;;;;;;6.88;1.67;;;18.20;82.30;;;;;;5094027;28;20040;-71
2023/09/13 04:38:05;;;;;;;5.45;1.42;;;18.20;82.10;;;;;;5094232;28;20127;-71
2023/09/13 04:40:31;;;;;;;4.00;1.38;;;18.30;81.50;;;;;;5092745;28;20060;-71
2023/09/13 04:43:06;;;;;;;4.43;1.50;;;18.20;81.30;;;;;;5093976;28;20055;-71
2023/09/13 04:45:33;;;;;;;2.55;0.93;;;18.20;81.40;;;;;;5074046;28;20044;-71
2023/09/13 04:47:58;;;;;;;3.75;0.80;;;18.20;81.60;;;;;;5073979;28;20047;-71
2023/09/13 04:50:24;;;;;;;3.00;1.10;;;18.10;81.50;;;;;;5094212;28;20044;-71
2023/09/13 04:52:50;;;;;;;2.80;1.30;;;18.20;81.50;;;;;;5093763;28;20052;-71
2023/09/13 04:55:18;;;;;;;3.22;0.73;;;18.20;81.40;;;;;;5093999;28;20044;-71
2023/09/13 04:57:44;;;;;;;3.47;1.20;;;18.20;81.30;;;;;;5077801;28;20044;-71
2023/09/13 05:00:11;;;;;;;4.35;1.30;;;18.20;81.20;;;;;;5076725;28;20394;-71
2023/09/13 05:02:40;;;;;;;3.10;1.10;;;18.20;81.20;;;;;;5093876;28;20602;-71
2023/09/13 05:05:07;;;;;;;3.17;1.20;;;18.20;81.20;;;;;;5093958;28;20193;-71
2023/09/13 05:07:33;;;;;;;2.30;1.10;;;18.20;81.10;;;;;;5093867;28;20040;-71
2023/09/13 05:09:59;;;;;;;3.63;0.90;;;18.30;81.10;;;;;;5093352;28;20105;-71
2023/09/13 05:12:24;;;;;;;2.50;1.00;;;18.30;80.80;;;;;;5093066;28;20040;-71
2023/09/13 05:14:50;;;;;;;3.38;1.10;;;18.30;80.20;;;;;;5093014;28;20031;-71
2023/09/13 05:17:16;;;;;;;3.97;1.35;;;18.20;79.00;;;;;;5093708;28;20040;-71
2023/09/13 05:19:42;;;;;;;3.75;1.45;;;18.10;78.40;;;;;;5093449;28;20120;-72
2023/09/13 05:22:07;;;;;;;5.18;1.83;;;18.00;78.30;;;;;;5093328;28;20040;-72
2023/09/13 05:24:33;;;;;;;6.15;1.85;;;17.90;78.20;;;;;;5093508;28;20044;-72
2023/09/13 05:26:59;;;;;;;4.40;1.35;;;17.80;78.00;;;;;;5076325;28;20040;-73
2023/09/13 05:29:25;;;;;;;5.05;1.80;;;17.80;78.20;;;;;;5093673;28;20051;-72
2023/09/13 05:31:51;;;;;;;5.07;2.03;;;17.70;78.50;;;;;;5059410;28;20509;-72
2023/09/13 05:34:16;;;;;;;6.90;1.70;;;17.60;78.30;;;;;;5093126;28;20039;-73
2023/09/13 05:36:42;;;;;;;4.47;1.42;;;17.60;78.40;;;;;;5092865;28;20096;-73
2023/09/13 05:39:08;;;;;;;4.07;1.50;;;17.50;78.60;;;;;;5076267;28;20040;-72
2023/09/13 05:41:34;;;;;;;4.38;1.38;;;17.40;78.70;;;;;;5092216;28;20562;-73
2023/09/13 05:44:00;;;;;;;3.60;1.30;;;17.30;78.80;;;;;;5076143;28;20059;-72
2023/09/13 05:46:25;;;;;;;2.97;1.02;;;17.30;79.20;;;;;;5092485;28;20051;-73
2023/09/13 05:48:51;;;;;;;5.15;1.10;;;17.20;79.30;;;;;;5058856;28;20044;-73
2023/09/13 05:51:19;;;;;;;4.43;1.63;;;17.20;79.50;;;;;;5091101;28;20036;-73
2023/09/13 05:53:44;;;;;;;4.55;1.73;;;17.20;79.70;;;;;;5092042;28;20482;-73
2023/09/13 05:56:11;;;;;;;8.57;2.13;;;17.10;79.90;;;;;;5074764;28;20039;-73
2023/09/13 05:58:43;;;;;;;6.50;1.90;;;17.10;80.00;;;;;;5092206;28;20039;-73
2023/09/13 06:01:12;;;;;;;4.88;1.65;;;17.10;79.80;;;;;;5089546;28;20040;-73
2023/09/13 06:03:38;;;;;;;4.68;1.48;;;17.10;79.80;;;;;;5074547;28;20039;-73
2023/09/13 06:06:04;;;;;;;5.28;1.38;;;17.10;79.80;;;;;;5091500;28;20040;-73
2023/09/13 06:08:29;;;;;;;3.53;1.20;;;17.10;79.80;;;;;;5091639;28;20035;-73
2023/09/13 06:10:55;;;;;;;4.22;1.48;;;17.10;79.80;;;;;;5069506;28;20120;-72
2023/09/13 06:13:21;;;;;;;3.92;1.30;;;17.10;79.80;;;;;;5086766;28;20036;-73
2023/09/13 06:15:47;;;;;;;5.07;1.63;;;17.10;79.60;;;;;;5070079;28;20068;-72
2023/09/13 06:18:12;;;;;;;3.90;1.30;;;17.00;79.50;;;;;;5086753;28;20032;-73
2023/09/13 06:20:38;;;;;;;3.78;1.48;;;17.00;79.60;;;;;;5086921;28;20040;-72
2023/09/13 06:23:04;;;;;;;4.28;1.80;;;16.90;79.40;;;;;;5086753;28;20134;-73
2023/09/13 06:25:29;;;;;;;5.30;1.73;;;16.90;79.20;;;;;;5086395;28;20188;-72
2023/09/13 06:27:55;;;;;;;4.40;1.50;;;16.90;79.20;;;;;;5085306;28;20151;-73
2023/09/13 06:30:21;;;;;;;5.82;1.90;;;16.80;79.00;;;;;;5086724;28;20044;-73
2023/09/13 06:32:47;;;;;;;5.88;2.40;;;16.70;79.00;;;;;;5069048;28;20032;-73
2023/09/13 06:35:14;;;;;;;9.73;2.40;;;16.70;79.10;;;;;;5085922;28;20528;-72
2023/09/13 06:37:40;;;;;;;5.28;2.05;;;16.70;79.20;;;;;;5086453;28;20082;-72
2023/09/13 06:40:07;;;;;;;5.22;1.80;;;16.70;79.40;;;;;;5069078;28;20036;-72
2023/09/13 06:42:33;;;;;;;5.80;2.30;;;16.60;79.40;;;;;;5069151;28;20056;-72
2023/09/13 06:44:59;;;;;;;6.60;2.38;;;16.60;79.50;;;;;;5102817;28;20044;-72
2023/09/13 06:47:28;;;;;;;8.73;2.47;;;16.60;79.60;;;;;;5086348;28;20051;-72
2023/09/13 06:49:57;;;;;;;5.47;2.47;;;16.60;79.80;;;;;;5085208;28;20052;-73
2023/09/13 06:52:23;;;;;;;12.43;2.85;;;16.60;80.00;;;;;;5100891;28;20369;-72
2023/09/13 06:54:48;;;;;;;7.95;2.63;;;16.50;79.80;;;;;;5085705;28;20032;-72
2023/09/13 06:57:16;;;;;;;6.25;2.88;;;16.50;80.00;;;;;;5085130;28;20118;-72
2023/09/13 06:59:41;;;;;;;7.40;2.90;;;16.50;80.20;;;;;;5068323;28;20040;-72
2023/09/13 07:02:08;;;;;;;7.65;2.90;;;16.50;79.80;;;;;;5085338;28;20036;-72
2023/09/13 07:04:34;;;;;;;7.53;2.72;;;16.50;79.80;;;;;;5052247;28;20036;-73
2023/09/13 07:06:59;;;;;;;8.52;2.95;;;16.40;79.60;;;;;;5085675;28;20528;-72
2023/09/13 07:09:25;;;;;;;9.60;2.72;;;16.50;79.60;;;;;;5085707;28;20154;-72
2023/09/13 07:11:51;;;;;;;8.60;3.00;;;16.40;79.70;;;;;;5069492;28;20053;-73
2023/09/13 07:14:17;;;;;;;10.10;2.72;;;16.40;79.90;;;;;;5085923;28;20383;-72
2023/09/13 07:16:42;;;;;;;8.73;2.80;;;16.50;80.00;;;;;;5086439;28;20055;-72
2023/09/13 07:19:08;;;;;;;9.77;3.30;;;16.50;79.50;;;;;;5085653;28;20433;-72
2023/09/13 07:21:34;;;;;;;10.13;2.58;;;16.50;79.10;;;;;;5085613;28;20036;-72
2023/09/13 07:23:59;;;;;;;6.55;2.50;;;16.50;79.10;;;;;;5085562;28;20040;-73
2023/09/13 07:26:25;;;;;;;9.95;2.78;;;16.50;79.20;;;;;;5069074;28;20093;-73
2023/09/13 07:28:50;;;;;;;9.85;3.70;;;16.50;79.10;;;;;;5085977;28;20036;-72
2023/09/13 07:31:16;;;;;;;8.02;3.22;;;16.50;79.30;;;;;;5085290;28;20042;-72
2023/09/13 07:33:42;;;;;;;9.23;3.35;;;16.60;79.20;;;;;;5067701;28;20044;-72
2023/09/13 07:36:08;;;;;;;11.27;2.85;;;16.60;79.30;;;;;;5084790;28;20033;-72
2023/09/13 07:38:34;;;;;;;8.68;2.90;;;16.60;79.20;;;;;;5085757;28;20032;-72
2023/09/13 07:41:00;;;;;;;9.35;2.67;;;16.60;79.20;;;;;;5084316;28;20063;-73
2023/09/13 07:43:27;;;;;;;11.73;3.28;;;16.70;79.40;;;;;;5068238;28;20066;-73
2023/09/13 07:45:52;;;;;;;10.10;3.22;;;16.70;79.60;;;;;;5085679;28;20036;-72
2023/09/13 07:48:18;;;;;;;11.75;2.80;;;16.70;79.70;;;;;;5084968;28;20048;-72
2023/09/13 07:50:45;;;;;;;10.95;3.05;;;16.80;79.60;;;;;;5068312;28;20039;-72
2023/09/13 07:53:12;;;;;;;11.18;3.30;;;16.80;79.60;;;;;;5084391;28;20538;-72
2023/09/13 07:55:38;;;;;;;8.88;2.55;;;16.80;79.50;;;;;;5068337;28;20067;-72
2023/09/13 07:58:05;;;;;;;10.40;2.35;;;16.90;79.50;;;;;;5085496;28;20076;-73
2023/09/13 08:00:31;;;;;;;9.20;2.55;;;16.90;79.60;;;;;;5085610;28;20044;-72
2023/09/13 08:02:59;;;;;;;9.27;2.55;;;16.90;79.10;;;;;;5083601;28;20394;-72
2023/09/13 08:05:25;;;;;;;8.93;2.95;;;16.90;79.00;;;;;;5084069;28;20052;-72
2023/09/13 08:07:53;;;;;;;7.05;2.67;;;16.90;78.90;;;;;;5085129;28;20047;-72
2023/09/13 08:10:18;;;;;;;8.02;2.60;;;17.00;78.40;;;;;;5085650;28;20040;-74
2023/09/13 08:12:44;;;;;;;7.63;2.83;;;17.00;78.10;;;;;;5085032;28;20392;-72
2023/09/13 08:15:10;;;;;;;9.88;2.53;;;17.00;77.90;;;;;;5070984;28;21481;-72
2023/09/13 08:17:36;;;;;;;10.25;2.42;;;17.00;77.70;;;;;;5089301;28;20048;-72
2023/09/13 08:20:05;;;;;;;8.52;2.70;;;17.00;77.50;;;;;;5072307;28;20052;-72
2023/09/13 08:22:30;;;;;;;8.20;2.42;;;17.00;77.70;;;;;;5087902;28;20124;-72
2023/09/13 08:24:56;;;;;;;11.48;4.03;;;17.00;77.60;;;;;;5088071;28;20482;-72
2023/09/13 08:27:22;;;;;;;9.23;2.47;;;17.10;77.30;;;;;;5088848;28;20044;-72
2023/09/13 08:29:48;;;;;;;5.80;2.70;;;17.10;77.00;;;;;;5088740;28;20040;-72
2023/09/13 08:32:14;;;;;;;6.80;2.42;;;17.10;77.10;;;;;;5088510;28;20043;-72
2023/09/13 08:34:40;;;;;;;8.60;2.50;;;17.10;77.50;;;;;;5087969;28;20036;-72
2023/09/13 08:37:05;;;;;;;10.45;2.35;;;17.20;77.70;;;;;;5071394;28;20907;-72
2023/09/13 08:39:32;;;;;;;4.72;1.75;;;17.20;77.40;;;;;;5088359;28;20032;-72
2023/09/13 08:41:58;;;;;;;7.20;2.15;;;17.30;77.40;;;;;;5087839;28;20109;-72
2023/09/13 08:44:26;;;;;;;6.53;2.08;;;17.30;77.30;;;;;;5088036;28;20443;-72
2023/09/13 08:46:56;;;;;;;8.40;2.72;;;17.40;77.50;;;;;;5088202;28;20040;-72
2023/09/13 08:49:23;;;;;;;7.05;2.25;;;17.40;77.40;;;;;;5087879;28;20043;-72
2023/09/13 08:51:51;;;;;;;7.57;1.90;;;17.50;77.60;;;;;;5087221;28;20032;-72
2023/09/13 08:54:17;;;;;;;5.40;1.88;;;17.60;77.10;;;;;;5086142;28;20052;-72
2023/09/13 08:56:45;;;;;;;5.80;2.08;;;17.60;76.90;;;;;;5071397;28;20117;-72
2023/09/13 08:59:12;;;;;;;6.70;1.80;;;17.70;76.70;;;;;;5088424;28;20044;-72
2023/09/13 09:01:40;;;;;;;8.68;2.10;;;17.80;76.50;;;;;;5087944;28;20031;-72
2023/09/13 09:04:08;;;;;;;8.27;2.33;;;17.80;76.30;;;;;;5087713;28;20115;-72
2023/09/13 09:06:34;;;;;;;5.50;1.83;;;17.90;76.10;;;;;;5088045;28;20052;-73
2023/09/13 09:09:01;;;;;;;5.80;2.22;;;18.00;76.50;;;;;;5087593;28;20058;-73
2023/09/13 09:11:27;;;;;;;5.90;2.00;;;18.10;76.80;;;;;;5086900;28;20051;-73
2023/09/13 09:13:55;;;;;;;8.90;2.10;;;18.20;76.00;;;;;;5087871;28;20036;-72
2023/09/13 09:16:22;;;;;;;5.38;2.13;;;18.30;74.90;;;;;;5070302;28;20055;-74
2023/09/13 09:18:50;;;;;;;5.57;2.10;;;18.40;74.80;;;;;;5071530;28;20040;-73
2023/09/13 09:21:17;;;;;;;7.93;1.75;;;18.50;73.90;;;;;;5087586;28;20040;-73
2023/09/13 09:23:43;;;;;;;5.55;1.80;;;18.50;73.60;;;;;;5087409;28;20382;-73
2023/09/13 09:26:10;;;;;;;6.50;1.80;;;18.50;73.20;;;;;;5086276;28;20032;-73
2023/09/13 09:28:35;;;;;;;7.78;2.10;;;18.60;73.10;;;;;;5087355;28;20066;-73
2023/09/13 09:31:02;;;;;;;9.05;2.92;;;18.70;73.60;;;;;;5087792;28;20478;-73
2023/09/13 09:33:30;;;;;;;5.75;1.90;;;18.70;73.50;;;;;;5069634;28;20533;-73
2023/09/13 09:36:00;;;;;;;4.80;1.80;;;18.80;73.60;;;;;;5087028;28;20360;-73
2023/09/13 09:38:28;;;;;;;5.32;1.75;;;18.90;72.70;;;;;;5070929;28;20378;-73
2023/09/13 09:41:02;;;;;;;8.20;2.45;;;19.00;72.90;;;;;;5071235;28;20111;-73
2023/09/13 09:43:29;;;;;;;7.10;2.50;;;19.20;73.60;;;;;;5087204;28;20067;-73
2023/09/13 09:45:55;;;;;;;7.07;1.77;;;19.30;73.60;;;;;;5070505;28;20057;-74
2023/09/13 09:48:21;;;;;;;8.27;2.67;;;19.40;72.80;;;;;;5087563;28;20360;-74
2023/09/13 09:50:51;;;;;;;6.55;2.15;;;19.50;71.70;;;;;;5087459;28;20040;-74
2023/09/13 09:53:19;;;;;;;4.63;1.80;;;19.60;71.50;;;;;;5070266;28;20036;-73
2023/09/13 09:55:45;;;;;;;4.13;1.48;;;19.60;71.10;;;;;;5086992;28;20047;-74
2023/09/13 09:58:12;;;;;;;3.45;1.48;;;19.70;71.70;;;;;;5086488;28;20044;-75
2023/09/13 10:00:46;;;;;;;5.22;1.40;;;19.70;71.80;;;;;;5070038;28;20044;-74
2023/09/13 10:03:17;;;;;;;5.13;1.52;;;19.80;71.60;;;;;;5086800;28;20036;-74
2023/09/13 10:05:53;;;;;;;5.35;1.70;;;19.80;71.70;;;;;;5086774;28;20036;-73
2023/09/13 10:08:19;;;;;;;4.10;1.48;;;19.80;71.90;;;;;;5087102;28;20513;-72
2023/09/13 10:10:44;;;;;;;4.43;1.73;;;19.80;71.50;;;;;;5086324;28;20044;-74
2023/09/13 10:13:14;;;;;;;5.80;2.17;;;19.70;71.10;;;;;;5085472;28;20075;-73
2023/09/13 10:15:40;;;;;;;7.60;2.25;;;19.70;71.00;;;;;;5086046;28;20079;-74
2023/09/13 10:18:12;;;;;;;6.22;1.88;;;19.60;71.50;;;;;;5086376;28;20085;-73
2023/09/13 10:20:39;;;;;;;4.13;1.92;;;19.50;71.70;;;;;;5086336;28;20039;-74
2023/09/13 10:23:09;;;;;;;6.47;3.00;;;19.40;71.90;;;;;;5086480;28;20076;-73
2023/09/13 10:25:37;;;;;;;6.88;2.15;;;19.30;72.00;;;;;;5086494;28;20036;-74
2023/09/13 10:28:05;;;;;;;6.82;2.65;;;19.30;72.10;;;;;;5086578;28;20048;-74
2023/09/13 10:30:35;;;;;;;6.03;2.33;;;19.10;71.50;;;;;;5086463;28;20067;-74
2023/09/13 10:33:03;;;;;;;9.82;3.58;;;19.10;72.10;;;;;;5069760;28;20058;-73
2023/09/13 10:35:30;;;;;;;10.23;3.08;;;19.00;72.20;;;;;;5069369;28;20051;-73
2023/09/13 10:38:24;;;;;;;6.05;3.05;;;18.90;72.50;;;;;;5068992;28;20042;-74
2023/09/13 10:41:01;;;;;;;8.73;2.97;;;18.80;72.40;;;;;;5077056;28;20133;-73
2023/09/13 10:43:28;;;;;;;7.05;2.83;;;18.60;72.90;;;;;;5086192;28;20044;-74
2023/09/13 10:45:54;;;;;;;7.78;3.20;;;18.60;73.40;;;;;;5085352;28;20397;-73
2023/09/13 10:48:21;;;;;;;6.55;2.72;;;18.60;73.70;;;;;;5085550;28;20474;-73
2023/09/13 10:50:49;;;;;;;8.23;3.10;;;18.60;73.90;;;;;;5086308;28;20040;-74
2023/09/13 10:53:15;;;;;;;8.85;2.95;;;18.60;73.90;;;;;;5085292;28;20089;-73
2023/09/13 10:55:41;;;;;;;7.57;3.28;;;18.60;73.30;;;;;;5086142;28;20047;-73
2023/09/13 10:58:09;;;;;;;8.77;3.53;;;18.50;73.50;;;;;;5086422;28;20094;-73
2023/09/13 11:00:36;;;;;;;6.10;2.70;;;18.50;73.70;;;;;;5086286;28;20160;-73
2023/09/13 11:03:04;;;;;;;7.30;3.58;;;18.50;73.90;;;;;;5085494;28;20047;-73
2023/09/13 11:05:32;;;;;;;7.85;3.28;;;18.50;73.60;;;;;;5086147;28;20043;-73
2023/09/13 11:07:57;;;;;;;6.75;2.78;;;18.60;74.30;;;;;;5086232;28;20047;-73
2023/09/13 11:10:31;;;;;;;5.70;2.45;;;18.70;74.50;;;;;;5086414;28;20051;-73
2023/09/13 11:13:09;;;;;;;7.28;3.13;;;18.70;74.50;;;;;;5085178;28;20090;-73
2023/09/13 11:15:48;;;;;;;7.53;2.50;;;18.80;73.80;;;;;;5082704;28;20055;-73
2023/09/13 11:18:15;;;;;;;6.25;2.40;;;18.80;72.50;;;;;;5078531;28;20033;-73
2023/09/13 11:20:42;;;;;;;4.53;2.40;;;18.90;72.70;;;;;;5079311;28;20454;-73
2023/09/13 11:23:14;;;;;;;6.72;2.50;;;18.90;72.60;;;;;;5063295;28;20063;-73
2023/09/13 11:25:54;;;;;;;5.22;2.90;;;19.00;71.30;;;;;;5079802;28;20063;-73
2023/09/13 11:28:43;;;;;;;5.90;2.92;;;19.10;70.20;;;;;;5080818;28;20471;-73
2023/09/13 11:31:10;;;;;;;4.68;2.67;;;19.10;70.50;;;;;;5063676;28;20517;-73
2023/09/13 11:33:54;;;;;;;5.32;2.65;;;19.20;71.10;;;;;;5080857;28;20040;-73
2023/09/13 11:36:21;;;;;;;6.50;2.58;;;19.30;69.90;;;;;;5080558;28;20379;-73
2023/09/13 11:39:06;;;;;;;7.07;2.72;;;19.40;68.60;;;;;;5080300;28;20565;-73
2023/09/13 11:41:39;;;;;;;7.40;2.80;;;19.50;67.30;;;;;;5080581;28;20040;-73
2023/09/13 11:44:07;;;;;;;4.40;2.43;;;19.60;66.00;;;;;;5080711;28;20418;-73
2023/09/13 11:46:33;;;;;;;6.40;2.50;;;19.70;66.30;;;;;;5081054;28;20067;-73
2023/09/13 11:48:59;;;;;;;5.93;2.15;;;19.70;64.20;;;;;;5065593;28;20067;-74
2023/09/13 11:51:25;;;;;;;5.32;2.47;;;19.80;61.90;;;;;;5084237;28;20386;-73
2023/09/13 11:53:51;;;;;;;4.53;2.75;;;19.80;62.10;;;;;;5084333;28;20038;-73
2023/09/13 11:56:36;;;;;;;6.47;2.92;;;19.90;62.20;;;;;;5084740;28;20032;-73
2023/09/13 11:59:02;;;;;;;5.68;2.70;;;19.90;62.70;;;;;;5084700;28;20036;-73
2023/09/13 12:01:31;;;;;;;4.47;2.35;;;20.00;61.30;;;;;;5084406;28;20039;-74
2023/09/13 12:03:59;;;;;;;4.63;2.80;;;20.10;62.30;;;;;;5066629;28;20036;-74
2023/09/13 12:06:25;;;;;;;5.70;2.53;;;20.20;61.60;;;;;;5085088;28;20475;-74
2023/09/13 12:08:55;;;;;;;4.53;2.60;;;20.30;61.40;;;;;;5083692;28;20043;-74
2023/09/13 12:11:21;;;;;;;4.53;2.50;;;20.40;60.50;;;;;;5084363;28;20394;-74
2023/09/13 12:13:49;;;;;;;5.28;2.75;;;20.40;59.20;;;;;;5084343;28;20042;-74
2023/09/13 12:16:16;;;;;;;5.22;2.80;;;20.50;59.80;;;;;;5084665;28;20127;-74
2023/09/13 12:18:43;;;;;;;4.28;2.30;;;20.50;59.90;;;;;;5083345;28;20040;-74
2023/09/13 12:21:10;;;;;;;4.85;2.60;;;20.50;60.70;;;;;;5084532;28;20539;-74
2023/09/13 12:23:42;;;;;;;5.28;2.40;;;20.60;60.00;;;;;;5084436;28;20047;-74
2023/09/13 12:26:11;;;;;;;5.15;3.13;;;20.60;60.10;;;;;;5084238;28;20040;-74
2023/09/13 12:28:39;;;;;;;5.38;2.17;;;20.60;59.70;;;;;;5083960;28;20052;-74
2023/09/13 12:31:12;;;;;;;5.35;2.20;;;20.60;59.50;;;;;;5084397;28;20038;-74
2023/09/13 12:33:41;;;;;;;4.25;2.33;;;20.70;58.50;;;;;;5084720;28;20126;-74
2023/09/13 12:36:07;;;;;;;4.47;2.72;;;20.70;58.60;;;;;;5084026;28;20077;-74
2023/09/13 12:38:45;;;;;;;5.97;2.50;;;20.70;58.90;;;;;;5067609;28;20039;-74
2023/09/13 12:41:16;;;;;;;5.85;1.85;;;20.80;59.80;;;;;;5084124;28;20636;-74
2023/09/13 12:43:44;;;;;;;7.00;2.35;;;20.80;59.00;;;;;;5083720;28;20463;-74
2023/09/13 12:46:14;;;;;;;4.93;2.03;;;20.80;58.70;;;;;;5084186;28;20051;-74